Terminal Aerodrome Forecast
Issued by NWS

Home | Current Version | Previous Version | Text Only | Print | Product List | Glossary On
Versions: 1 2 3 4 5 6 7 8 9 10 11 12 13 14 15 16 17
000
FTUS42 KMHX 212300
TAFISO
TAF
KISO 212322Z 2200/2224 04005KT P6SM OVC050
     FM220500 02010KT P6SM VCSH OVC020
     FM221000 03010KT P6SM -RA OVC008
     FM221300 04010KT 4SM -RA OVC005
     FM221900 35005KT 4SM -DZ OVC005
      AMD LTD TO CLD VIS AND WIND=

USA.gov is the U.S. government's official web portal to all federal, state and local government web resources and services.